Terminal Aerodrome Forecast
Issued by NWS Twin Cities, MN

Home | Current Version | Previous Version | Text Only | Print | Product List | Glossary On
Versions: 1 2 3 4 5 6 7 8 9 10 11 12 13 14 15 16 17 18 19 20 21 22 23 24
000
FTUS43 KMPX 280820 AAA
TAFMSP
TAF AMD
KMSP 280820Z 2808/2912 16006KT P6SM BKN200
     FM281100 12008KT 6SM -SHRA BR SCT008 BKN035
     FM281400 12010KT P6SM VCSH SCT015 BKN035
     FM281800 10009KT P6SM BKN030
     FM282000 08010KT P6SM BKN080
     FM290400 VRB03KT P6SM BKN150=

USA.gov is the U.S. government's official web portal to all federal, state and local government web resources and services.